Flight Track Log - Related Links

Times and Time Zones

All times are in EDT time to prevent confusion due to time zone crossing. See the UPS2292 flight status page for this flight to view local times or setup timezone preferences in your user account.

Time Position Orientation Groundspeed Altitude Reporting Facility
EDT Latitude Longitude Course Direction KTS MPH feet Rate Location/Type
Thu 05:05:59 PM 28.3760 -81.4180 342° North 273 314 10,900  Level FlightAware ADS-B
Thu 05:06:46 PM 28.4440 -81.4340 348° North 359 413 12,600 2,727 Climbing FlightAware ADS-B
Thu 05:07:27 PM 28.5100 -81.4500 348° North 387 445 14,900 3,805 Climbing FlightAware ADS-B
Thu 05:08:08 PM 28.5730 -81.4710 344° North 381 438 17,800 4,098 Climbing FlightAware ADS-B
Thu 05:08:49 PM 28.6520 -81.4900 348° North 389 448 20,500 2,463 Climbing FlightAware ADS-B
Thu 05:09:43 PM 28.7420 -81.4920 359° North 410 472 21,700 2,340 Climbing FlightAware ADS-B
Thu 05:10:29 PM 28.6970 -81.4910 179° South 410 472 24,400 1,929 Climbing FlightAware ADS-B
Thu 05:11:07 PM 28.7580 -81.4930 358° North 410 472 24,400  Level FlightAware ADS-B
Thu 05:11:56 PM 28.8370 -81.4940 359° North 410 472 24,400  Level FlightAware ADS-B
Thu 05:12:30 PM 28.8920 -81.4950 359° North 410 472 24,400  Level FlightAware ADS-B
Thu 05:13:18 PM 28.9700 -81.4970 359° North 410 472 24,400  Level FlightAware ADS-B
Thu 05:13:55 PM 29.0290 -81.4980 359° North 410 472 24,400 2,544 Level FlightAware ADS-B
Thu 05:17:28 PM 29.7480 -81.5040 360° North 477 549 35,000 2,382 Climbing FlightAware ADS-B
Thu 05:18:22 PM 29.8530 -81.5050 360° North 470 541 35,000  Level FlightAware ADS-B
Thu 05:19:02 PM 29.9530 -81.5060 360° North 469 540 35,000  Level FlightAware ADS-B
Thu 05:19:38 PM 30.0320 -81.5070 359° North 474 545 35,000  Level FlightAware ADS-B
Thu 05:20:20 PM 30.1210 -81.5080 359° North 472 543 35,000  Level FlightAware ADS-B
Thu 05:20:54 PM 30.1980 -81.5090 359° North 469 540 35,000  Level FlightAware ADS-B
Thu 05:21:42 PM 30.3010 -81.5100 360° North 470 541 35,000  Level FlightAware ADS-B
Thu 05:22:28 PM 30.4030 -81.5060 North 475 547 35,000  Level FlightAware ADS-B
Thu 05:23:15 PM 30.5080 -81.4970 North 474 545 35,000  Level FlightAware ADS-B
Thu 05:23:52 PM 30.5850 -81.4910 North 474 545 35,000  Level FlightAware ADS-B
Thu 05:24:32 PM 30.6760 -81.4840 North 475 547 35,000  Level FlightAware ADS-B
Thu 05:25:16 PM 30.7650 -81.4760 North 476 548 35,000  Level FlightAware ADS-B
Thu 05:26:16 PM 30.8880 -81.4660 North 478 550 35,000  Level FlightAware ADS-B
Thu 05:26:56 PM 30.9910 -81.4580 North 474 545 35,000  Level FlightAware ADS-B
Thu 05:27:28 PM 31.0470 -81.4530 North 473 544 35,000  Level FlightAware ADS-B
Thu 05:28:16 PM 31.1370 -81.4460 North 473 544 35,000  Level FlightAware ADS-B
Thu 05:28:52 PM 31.2030 -81.4410 North 473 544 35,000  Level FlightAware ADS-B
Thu 05:29:40 PM 31.2920 -81.4330 North 473 544 35,000  Level FlightAware ADS-B
Thu 05:30:16 PM 31.3590 -81.4280 North 473 544 35,000  Level FlightAware ADS-B
Thu 05:30:59 PM 31.5050 -81.3700 19° North 472 543 35,000  Level FlightAware ADS-B
Thu 05:31:56 PM 31.6430 -81.3340 13° North 470 541 35,000  Level FlightAware ADS-B
Thu 05:32:37 PM 31.7250 -81.3120 13° North 474 545 35,000  Level FlightAware ADS-B
Thu 05:33:20 PM 31.8160 -81.2880 13° North 476 548 35,000  Level FlightAware ADS-B
Thu 05:33:56 PM 31.9000 -81.2860 North 447 514 35,000 -282 Level FlightAware ADS-B
Thu 05:34:45 PM 31.9970 -81.3010 353° North 441 507 34,600 -674 Descending FlightAware ADS-B
Thu 05:35:25 PM 32.0740 -81.3130 352° North 441 507 34,000 -992 Descending FlightAware ADS-B
Thu 05:36:46 PM 32.2470 -81.3140 360° North 459 528 32,600 -984 Descending FlightAware ADS-B
Thu 05:37:27 PM 32.3170 -81.3030 North 457 526 32,000 -488 Descending FlightAware ADS-B
Thu 05:38:12 PM 32.4030 -81.2900 North 457 526 31,900 -86 Descending FlightAware ADS-B
Thu 05:38:37 PM 32.4480 -81.2830 North 457 526 31,900  Level FlightAware ADS-B
Thu 05:39:25 PM 32.5330 -81.2710 North 457 526 31,900  Level FlightAware ADS-B
Thu 05:40:01 PM 32.5980 -81.2620 North 457 526 31,900 -5,707 Level FlightAware ADS-B
Thu 05:40:47 PM 32.7500 -81.2340 North 441 507 24,100 -6,535 Descending FlightAware ADS-B
Thu 05:41:42 PM 32.8660 -81.2160 North 428 493 20,900 -3,180 Descending FlightAware ADS-B
Thu 05:42:27 PM 32.9540 -81.2010 North 426 490 18,800 -2,612 Descending FlightAware ADS-B
Thu 05:43:07 PM 33.0330 -81.1880 North 418 481 17,200 -2,800 Descending FlightAware ADS-B
Thu 05:43:42 PM 33.0970 -81.1780 North 400 460 15,300 -3,158 Descending FlightAware ADS-B
Thu 05:44:23 PM 33.1670 -81.1660 North 383 441 13,200 -2,894 Descending FlightAware ADS-B
Thu 05:45:07 PM 33.2440 -81.1540 North 368 423 11,200 -1,786 Descending FlightAware ADS-B
Thu 05:45:47 PM 33.3130 -81.1420 North 331 381 10,700 -706 Descending FlightAware ADS-B
Thu 05:46:32 PM 33.3750 -81.1320 North 291 335 10,200 -1,040 Descending FlightAware ADS-B
Thu 05:47:02 PM 33.4150 -81.1260 North 287 330 9,400 -1,500 Descending FlightAware ADS-B
Thu 05:47:12 PM 33.4280 -81.1240 North 285 328 9,200 -1,650 Descending FlightAware ADS-B
Thu 05:47:42 PM 33.4660 -81.1180 North 283 326 8,300 -1,733 Descending FlightAware ADS-B
Thu 05:47:57 PM 33.4840 -81.1150 North 282 325 7,900 -1,256 Descending FlightAware ADS-B
Thu 05:48:25 PM 33.5180 -81.1090 North 281 323 7,400 -1,200 Descending FlightAware ADS-B
Thu 05:48:47 PM 33.5510 -81.1040 North 281 323 6,900 -1,622 Descending FlightAware ADS-B
Thu 05:49:02 PM 33.5710 -81.1010 North 280 322 6,400 -964 Descending FlightAware ADS-B
Thu 05:49:43 PM 33.6170 -81.0940 North 279 321 6,000 -1,558 Descending FlightAware ADS-B
Thu 05:50:46 PM 33.6878 -81.0831 North 274 315 3,700 -1,463 Descending Jacksonville Center
Thu 05:51:46 PM 33.7542 -81.0467 24° Northeast 266 306 3,000 -350 Descending Jacksonville Center
Thu 05:52:46 PM 33.7844 -80.9861 59° Northeast 238 274 3,000  Level Jacksonville Center
Thu 05:54:00 PM 33.8865 -81.0742 328° Northwest  Level Estimated
Thu 06:01:00 PM 33.9333 -81.1167 328° Northwest  Level FlightAware Approximate
Thu 06:02:00 PM 33.9388 -81.1195 328° Northwest  Level Estimated
Thu 06:03:00 PM 33.9333 -81.1167 328° Northwest  Level FlightAware Approximate
Thu 06:04:00 PM 33.9388 -81.1195 328° Northwest  Level Estimated
Thu 06:05:00 PM 33.9333 -81.1167 328° Northwest  Level FlightAware Approximate
Thu 06:06:00 PM 33.9388 -81.1195 328° Northwest  Level Estimated

Login

Don't have an account? Register now (free) for customized features, flight alerts, and more!